sensor_id;sensor_type;location;lat;lon;timestamp;P1;durP1;ratioP1;P2;durP2;ratioP2
15848;SDS011;8024;48.708;9.394;2022-09-20T00:01:25;4.97;;;4.57;;
15848;SDS011;8024;48.708;9.394;2022-09-20T00:03:54;5.43;;;4.93;;
15848;SDS011;8024;48.708;9.394;2022-09-20T00:06:24;5.07;;;4.60;;
15848;SDS011;8024;48.708;9.394;2022-09-20T00:08:52;5.23;;;4.83;;
15848;SDS011;8024;48.708;9.394;2022-09-20T00:11:21;7.17;;;5.80;;
15848;SDS011;8024;48.708;9.394;2022-09-20T00:13:51;4.63;;;4.23;;
15848;SDS011;8024;48.708;9.394;2022-09-20T00:16:21;6.90;;;4.70;;
15848;SDS011;8024;48.708;9.394;2022-09-20T00:18:50;5.47;;;4.77;;
15848;SDS011;8024;48.708;9.394;2022-09-20T00:21:20;4.60;;;4.20;;
15848;SDS011;8024;48.708;9.394;2022-09-20T00:23:50;4.70;;;4.07;;
15848;SDS011;8024;48.708;9.394;2022-09-20T00:26:17;4.90;;;4.40;;
15848;SDS011;8024;48.708;9.394;2022-09-20T00:28:45;6.00;;;4.43;;
15848;SDS011;8024;48.708;9.394;2022-09-20T00:31:14;5.07;;;3.97;;
15848;SDS011;8024;48.708;9.394;2022-09-20T00:33:41;4.50;;;4.10;;
15848;SDS011;8024;48.708;9.394;2022-09-20T00:36:26;5.43;;;4.10;;
15848;SDS011;8024;48.708;9.394;2022-09-20T00:38:54;4.50;;;3.50;;
15848;SDS011;8024;48.708;9.394;2022-09-20T00:41:21;3.70;;;3.20;;
15848;SDS011;8024;48.708;9.394;2022-09-20T00:43:49;5.73;;;3.13;;
15848;SDS011;8024;48.708;9.394;2022-09-20T00:46:20;3.40;;;3.10;;
15848;SDS011;8024;48.708;9.394;2022-09-20T00:48:51;2.90;;;2.70;;
15848;SDS011;8024;48.708;9.394;2022-09-20T00:51:22;4.03;;;3.60;;
15848;SDS011;8024;48.708;9.394;2022-09-20T00:53:53;6.87;;;3.57;;
15848;SDS011;8024;48.708;9.394;2022-09-20T00:56:23;5.07;;;3.47;;
15848;SDS011;8024;48.708;9.394;2022-09-20T00:58:56;3.97;;;3.20;;
15848;SDS011;8024;48.708;9.394;2022-09-20T01:01:30;4.60;;;3.17;;
15848;SDS011;8024;48.708;9.394;2022-09-20T01:03:57;3.03;;;2.70;;
15848;SDS011;8024;48.708;9.394;2022-09-20T01:06:25;3.33;;;2.90;;
15848;SDS011;8024;48.708;9.394;2022-09-20T01:08:53;3.30;;;3.00;;
15848;SDS011;8024;48.708;9.394;2022-09-20T01:11:23;3.57;;;2.70;;
15848;SDS011;8024;48.708;9.394;2022-09-20T01:13:51;3.10;;;2.90;;
15848;SDS011;8024;48.708;9.394;2022-09-20T01:16:18;3.90;;;3.00;;
15848;SDS011;8024;48.708;9.394;2022-09-20T01:18:48;3.90;;;3.00;;
15848;SDS011;8024;48.708;9.394;2022-09-20T01:21:15;5.23;;;2.60;;
15848;SDS011;8024;48.708;9.394;2022-09-20T01:23:45;3.87;;;2.53;;
15848;SDS011;8024;48.708;9.394;2022-09-20T01:26:27;4.20;;;2.63;;
15848;SDS011;8024;48.708;9.394;2022-09-20T01:29:08;3.20;;;2.90;;
15848;SDS011;8024;48.708;9.394;2022-09-20T01:31:43;7.10;;;2.87;;
15848;SDS011;8024;48.708;9.394;2022-09-20T01:34:15;4.63;;;3.73;;
15848;SDS011;8024;48.708;9.394;2022-09-20T01:36:47;3.07;;;2.87;;
15848;SDS011;8024;48.708;9.394;2022-09-20T01:39:21;2.77;;;2.57;;
15848;SDS011;8024;48.708;9.394;2022-09-20T01:41:56;5.47;;;2.70;;
15848;SDS011;8024;48.708;9.394;2022-09-20T01:44:29;3.13;;;2.43;;
15848;SDS011;8024;48.708;9.394;2022-09-20T01:47:04;7.77;;;3.07;;
15848;SDS011;8024;48.708;9.394;2022-09-20T01:49:39;5.20;;;2.57;;
15848;SDS011;8024;48.708;9.394;2022-09-20T01:55:16;3.57;;;3.07;;
15848;SDS011;8024;48.708;9.394;2022-09-20T01:58:02;3.40;;;2.60;;
15848;SDS011;8024;48.708;9.394;2022-09-20T02:00:39;3.13;;;2.23;;
15848;SDS011;8024;48.708;9.394;2022-09-20T02:03:36;3.13;;;2.40;;
15848;SDS011;8024;48.708;9.394;2022-09-20T02:06:26;3.03;;;2.50;;
15848;SDS011;8024;48.708;9.394;2022-09-20T02:09:24;2.87;;;2.67;;
15848;SDS011;8024;48.708;9.394;2022-09-20T02:12:30;3.80;;;2.37;;
15848;SDS011;8024;48.708;9.394;2022-09-20T02:15:16;2.50;;;2.30;;
15848;SDS011;8024;48.708;9.394;2022-09-20T02:18:02;3.73;;;2.13;;
15848;SDS011;8024;48.708;9.394;2022-09-20T02:20:38;3.17;;;2.87;;
15848;SDS011;8024;48.708;9.394;2022-09-20T02:23:20;2.47;;;2.27;;
15848;SDS011;8024;48.708;9.394;2022-09-20T02:26:04;4.17;;;3.07;;
15848;SDS011;8024;48.708;9.394;2022-09-20T02:28:51;3.37;;;2.47;;
15848;SDS011;8024;48.708;9.394;2022-09-20T02:37:16;3.07;;;2.20;;
15848;SDS011;8024;48.708;9.394;2022-09-20T02:40:00;4.77;;;2.43;;
15848;SDS011;8024;48.708;9.394;2022-09-20T02:42:39;4.03;;;2.67;;
15848;SDS011;8024;48.708;9.394;2022-09-20T02:45:10;4.47;;;2.70;;
15848;SDS011;8024;48.708;9.394;2022-09-20T02:47:47;7.33;;;3.07;;
15848;SDS011;8024;48.708;9.394;2022-09-20T02:50:22;3.30;;;2.27;;
15848;SDS011;8024;48.708;9.394;2022-09-20T02:52:59;5.93;;;2.80;;
15848;SDS011;8024;48.708;9.394;2022-09-20T02:55:36;3.77;;;2.63;;
15848;SDS011;8024;48.708;9.394;2022-09-20T02:58:19;3.33;;;2.20;;
15848;SDS011;8024;48.708;9.394;2022-09-20T03:00:56;6.07;;;3.60;;
15848;SDS011;8024;48.708;9.394;2022-09-20T03:03:30;3.73;;;1.90;;
15848;SDS011;8024;48.708;9.394;2022-09-20T03:06:08;3.50;;;2.17;;
15848;SDS011;8024;48.708;9.394;2022-09-20T03:08:42;3.00;;;2.30;;
15848;SDS011;8024;48.708;9.394;2022-09-20T03:11:17;3.33;;;2.53;;
15848;SDS011;8024;48.708;9.394;2022-09-20T03:13:56;3.53;;;2.30;;
15848;SDS011;8024;48.708;9.394;2022-09-20T03:16:43;3.87;;;2.30;;
15848;SDS011;8024;48.708;9.394;2022-09-20T03:19:18;3.17;;;2.27;;
15848;SDS011;8024;48.708;9.394;2022-09-20T03:22:01;4.40;;;2.47;;
15848;SDS011;8024;48.708;9.394;2022-09-20T03:24:38;3.60;;;2.27;;
15848;SDS011;8024;48.708;9.394;2022-09-20T03:27:18;3.23;;;1.93;;
15848;SDS011;8024;48.708;9.394;2022-09-20T03:29:57;2.53;;;1.80;;
15848;SDS011;8024;48.708;9.394;2022-09-20T03:32:43;5.47;;;2.40;;
15848;SDS011;8024;48.708;9.394;2022-09-20T03:35:23;2.00;;;1.80;;
15848;SDS011;8024;48.708;9.394;2022-09-20T03:38:01;3.13;;;1.87;;
15848;SDS011;8024;48.708;9.394;2022-09-20T03:44:00;4.10;;;2.47;;
15848;SDS011;8024;48.708;9.394;2022-09-20T03:46:37;2.30;;;1.80;;
15848;SDS011;8024;48.708;9.394;2022-09-20T03:52:02;4.07;;;2.00;;
15848;SDS011;8024;48.708;9.394;2022-09-20T03:54:47;3.60;;;2.13;;
15848;SDS011;8024;48.708;9.394;2022-09-20T04:00:20;3.00;;;2.30;;
15848;SDS011;8024;48.708;9.394;2022-09-20T04:02:55;3.93;;;2.27;;
15848;SDS011;8024;48.708;9.394;2022-09-20T04:05:45;3.33;;;2.27;;
15848;SDS011;8024;48.708;9.394;2022-09-20T04:08:42;4.27;;;2.00;;
15848;SDS011;8024;48.708;9.394;2022-09-20T04:11:22;2.67;;;1.73;;
15848;SDS011;8024;48.708;9.394;2022-09-20T04:13:55;3.80;;;1.80;;
15848;SDS011;8024;48.708;9.394;2022-09-20T04:16:31;4.50;;;2.47;;
15848;SDS011;8024;48.708;9.394;2022-09-20T04:19:09;4.40;;;2.00;;
15848;SDS011;8024;48.708;9.394;2022-09-20T04:21:42;2.20;;;2.00;;
15848;SDS011;8024;48.708;9.394;2022-09-20T04:24:16;2.10;;;2.00;;
15848;SDS011;8024;48.708;9.394;2022-09-20T04:26:50;4.67;;;2.27;;
15848;SDS011;8024;48.708;9.394;2022-09-20T04:29:25;3.30;;;2.40;;
15848;SDS011;8024;48.708;9.394;2022-09-20T04:32:01;3.77;;;2.60;;
15848;SDS011;8024;48.708;9.394;2022-09-20T04:34:37;3.50;;;2.50;;
15848;SDS011;8024;48.708;9.394;2022-09-20T04:37:27;5.43;;;2.00;;
15848;SDS011;8024;48.708;9.394;2022-09-20T04:40:04;2.10;;;1.90;;
15848;SDS011;8024;48.708;9.394;2022-09-20T04:43:04;3.53;;;2.10;;
15848;SDS011;8024;48.708;9.394;2022-09-20T04:45:55;2.63;;;2.13;;
15848;SDS011;8024;48.708;9.394;2022-09-20T04:51:42;3.20;;;2.60;;
15848;SDS011;8024;48.708;9.394;2022-09-20T04:54:54;4.43;;;2.37;;
15848;SDS011;8024;48.708;9.394;2022-09-20T04:57:49;3.27;;;2.40;;
15848;SDS011;8024;48.708;9.394;2022-09-20T05:00:56;3.30;;;2.57;;
15848;SDS011;8024;48.708;9.394;2022-09-20T05:06:56;4.10;;;2.27;;
15848;SDS011;8024;48.708;9.394;2022-09-20T05:09:50;4.37;;;2.50;;
15848;SDS011;8024;48.708;9.394;2022-09-20T05:12:51;4.07;;;2.40;;
15848;SDS011;8024;48.708;9.394;2022-09-20T05:15:34;8.20;;;2.43;;
15848;SDS011;8024;48.708;9.394;2022-09-20T05:21:11;2.40;;;2.20;;
15848;SDS011;8024;48.708;9.394;2022-09-20T05:23:51;4.50;;;2.53;;
15848;SDS011;8024;48.708;9.394;2022-09-20T05:26:33;3.50;;;2.33;;
15848;SDS011;8024;48.708;9.394;2022-09-20T05:29:09;3.30;;;2.17;;
15848;SDS011;8024;48.708;9.394;2022-09-20T05:31:46;3.13;;;2.20;;
15848;SDS011;8024;48.708;9.394;2022-09-20T05:34:21;2.40;;;2.20;;
15848;SDS011;8024;48.708;9.394;2022-09-20T05:36:57;3.63;;;2.43;;
15848;SDS011;8024;48.708;9.394;2022-09-20T05:39:33;2.47;;;2.00;;
15848;SDS011;8024;48.708;9.394;2022-09-20T05:42:10;5.83;;;2.30;;
15848;SDS011;8024;48.708;9.394;2022-09-20T05:44:52;2.80;;;1.77;;
15848;SDS011;8024;48.708;9.394;2022-09-20T05:47:26;2.77;;;2.00;;
15848;SDS011;8024;48.708;9.394;2022-09-20T05:50:04;3.30;;;2.50;;
15848;SDS011;8024;48.708;9.394;2022-09-20T05:52:46;3.87;;;2.17;;
15848;SDS011;8024;48.708;9.394;2022-09-20T05:55:26;3.53;;;2.23;;
15848;SDS011;8024;48.708;9.394;2022-09-20T05:58:15;4.30;;;2.40;;
15848;SDS011;8024;48.708;9.394;2022-09-20T06:00:52;5.57;;;3.00;;
15848;SDS011;8024;48.708;9.394;2022-09-20T06:03:29;4.57;;;2.30;;
15848;SDS011;8024;48.708;9.394;2022-09-20T06:06:03;4.87;;;2.00;;
15848;SDS011;8024;48.708;9.394;2022-09-20T06:08:42;3.27;;;2.47;;
15848;SDS011;8024;48.708;9.394;2022-09-20T06:11:37;3.13;;;2.80;;
15848;SDS011;8024;48.708;9.394;2022-09-20T06:14:18;4.80;;;2.63;;
15848;SDS011;8024;48.708;9.394;2022-09-20T06:16:56;6.90;;;2.97;;
15848;SDS011;8024;48.708;9.394;2022-09-20T06:19:33;4.97;;;3.37;;
15848;SDS011;8024;48.708;9.394;2022-09-20T06:22:08;9.10;;;3.60;;
15848;SDS011;8024;48.708;9.394;2022-09-20T06:24:42;5.10;;;3.77;;
15848;SDS011;8024;48.708;9.394;2022-09-20T06:27:13;5.53;;;3.13;;
15848;SDS011;8024;48.708;9.394;2022-09-20T06:29:45;4.80;;;3.13;;
15848;SDS011;8024;48.708;9.394;2022-09-20T06:32:17;4.47;;;3.70;;
15848;SDS011;8024;48.708;9.394;2022-09-20T06:34:46;5.97;;;3.10;;
15848;SDS011;8024;48.708;9.394;2022-09-20T06:37:18;3.57;;;2.83;;
15848;SDS011;8024;48.708;9.394;2022-09-20T06:40:26;5.47;;;2.87;;
15848;SDS011;8024;48.708;9.394;2022-09-20T06:43:20;5.83;;;2.70;;
15848;SDS011;8024;48.708;9.394;2022-09-20T06:45:47;5.03;;;3.07;;
15848;SDS011;8024;48.708;9.394;2022-09-20T06:48:14;5.47;;;3.23;;
15848;SDS011;8024;48.708;9.394;2022-09-20T06:50:44;4.50;;;2.97;;
15848;SDS011;8024;48.708;9.394;2022-09-20T06:53:13;4.93;;;2.80;;
15848;SDS011;8024;48.708;9.394;2022-09-20T06:55:42;3.70;;;3.30;;
15848;SDS011;8024;48.708;9.394;2022-09-20T06:58:10;5.60;;;3.57;;
15848;SDS011;8024;48.708;9.394;2022-09-20T07:00:38;3.17;;;2.83;;
15848;SDS011;8024;48.708;9.394;2022-09-20T07:03:05;5.87;;;3.10;;
15848;SDS011;8024;48.708;9.394;2022-09-20T07:05:33;5.80;;;3.00;;
15848;SDS011;8024;48.708;9.394;2022-09-20T07:08:02;5.10;;;3.20;;
15848;SDS011;8024;48.708;9.394;2022-09-20T07:10:30;6.57;;;4.03;;
15848;SDS011;8024;48.708;9.394;2022-09-20T07:12:57;5.40;;;3.23;;
15848;SDS011;8024;48.708;9.394;2022-09-20T07:15:25;4.07;;;3.67;;
15848;SDS011;8024;48.708;9.394;2022-09-20T07:17:53;6.37;;;3.90;;
15848;SDS011;8024;48.708;9.394;2022-09-20T07:20:20;6.90;;;3.77;;
15848;SDS011;8024;48.708;9.394;2022-09-20T07:22:47;5.27;;;3.13;;
15848;SDS011;8024;48.708;9.394;2022-09-20T07:25:16;3.90;;;3.17;;
15848;SDS011;8024;48.708;9.394;2022-09-20T07:27:44;10.53;;;4.50;;
15848;SDS011;8024;48.708;9.394;2022-09-20T07:30:12;5.17;;;3.43;;
15848;SDS011;8024;48.708;9.394;2022-09-20T07:32:39;6.27;;;3.63;;
15848;SDS011;8024;48.708;9.394;2022-09-20T07:35:07;5.10;;;3.33;;
15848;SDS011;8024;48.708;9.394;2022-09-20T07:37:35;6.27;;;3.10;;
15848;SDS011;8024;48.708;9.394;2022-09-20T07:40:05;5.73;;;3.13;;
15848;SDS011;8024;48.708;9.394;2022-09-20T07:42:36;4.17;;;3.77;;
15848;SDS011;8024;48.708;9.394;2022-09-20T07:45:04;4.53;;;3.33;;
15848;SDS011;8024;48.708;9.394;2022-09-20T07:47:32;5.83;;;3.40;;
15848;SDS011;8024;48.708;9.394;2022-09-20T07:50:00;4.93;;;3.20;;
15848;SDS011;8024;48.708;9.394;2022-09-20T07:52:28;4.93;;;3.90;;
15848;SDS011;8024;48.708;9.394;2022-09-20T07:54:55;4.60;;;3.30;;
15848;SDS011;8024;48.708;9.394;2022-09-20T07:57:22;4.17;;;3.77;;
15848;SDS011;8024;48.708;9.394;2022-09-20T07:59:50;5.60;;;3.60;;
15848;SDS011;8024;48.708;9.394;2022-09-20T08:02:18;5.43;;;4.67;;
15848;SDS011;8024;48.708;9.394;2022-09-20T08:04:45;7.00;;;4.17;;
15848;SDS011;8024;48.708;9.394;2022-09-20T08:07:13;4.60;;;3.97;;
15848;SDS011;8024;48.708;9.394;2022-09-20T08:09:41;7.13;;;4.33;;
15848;SDS011;8024;48.708;9.394;2022-09-20T08:12:08;7.40;;;4.60;;
15848;SDS011;8024;48.708;9.394;2022-09-20T08:14:38;6.50;;;4.70;;
15848;SDS011;8024;48.708;9.394;2022-09-20T08:17:08;4.50;;;4.07;;
15848;SDS011;8024;48.708;9.394;2022-09-20T08:19:36;6.53;;;4.33;;
15848;SDS011;8024;48.708;9.394;2022-09-20T08:22:06;5.77;;;4.63;;
15848;SDS011;8024;48.708;9.394;2022-09-20T08:24:34;4.97;;;3.93;;
15848;SDS011;8024;48.708;9.394;2022-09-20T08:27:02;6.57;;;4.10;;
15848;SDS011;8024;48.708;9.394;2022-09-20T08:29:29;5.73;;;4.33;;
15848;SDS011;8024;48.708;9.394;2022-09-20T08:31:56;4.93;;;4.07;;
15848;SDS011;8024;48.708;9.394;2022-09-20T08:34:26;7.37;;;3.50;;
15848;SDS011;8024;48.708;9.394;2022-09-20T08:36:54;5.57;;;3.80;;
15848;SDS011;8024;48.708;9.394;2022-09-20T08:39:22;5.17;;;4.53;;
15848;SDS011;8024;48.708;9.394;2022-09-20T08:41:51;4.57;;;3.20;;
15848;SDS011;8024;48.708;9.394;2022-09-20T08:44:23;6.50;;;3.30;;
15848;SDS011;8024;48.708;9.394;2022-09-20T08:46:55;5.40;;;3.50;;
15848;SDS011;8024;48.708;9.394;2022-09-20T08:49:31;7.07;;;3.47;;
15848;SDS011;8024;48.708;9.394;2022-09-20T08:51:59;6.40;;;3.07;;
15848;SDS011;8024;48.708;9.394;2022-09-20T08:54:29;8.47;;;3.27;;
15848;SDS011;8024;48.708;9.394;2022-09-20T08:57:00;5.23;;;3.30;;
15848;SDS011;8024;48.708;9.394;2022-09-20T08:59:31;6.10;;;2.77;;
15848;SDS011;8024;48.708;9.394;2022-09-20T09:01:58;5.10;;;3.13;;
15848;SDS011;8024;48.708;9.394;2022-09-20T09:04:29;2.73;;;1.50;;
15848;SDS011;8024;48.708;9.394;2022-09-20T09:07:01;5.53;;;1.63;;
15848;SDS011;8024;48.708;9.394;2022-09-20T09:09:29;5.53;;;1.20;;
15848;SDS011;8024;48.708;9.394;2022-09-20T09:11:57;5.37;;;1.60;;
15848;SDS011;8024;48.708;9.394;2022-09-20T09:14:25;3.60;;;1.70;;
15848;SDS011;8024;48.708;9.394;2022-09-20T09:17:12;5.83;;;1.80;;
15848;SDS011;8024;48.708;9.394;2022-09-20T09:19:43;4.23;;;2.00;;
15848;SDS011;8024;48.708;9.394;2022-09-20T09:22:16;9.37;;;1.63;;
15848;SDS011;8024;48.708;9.394;2022-09-20T09:24:45;3.57;;;1.50;;
15848;SDS011;8024;48.708;9.394;2022-09-20T09:27:32;3.77;;;0.97;;
15848;SDS011;8024;48.708;9.394;2022-09-20T09:29:59;4.33;;;0.93;;
15848;SDS011;8024;48.708;9.394;2022-09-20T09:32:27;2.70;;;1.00;;
15848;SDS011;8024;48.708;9.394;2022-09-20T09:35:15;1.60;;;0.80;;
15848;SDS011;8024;48.708;9.394;2022-09-20T09:37:52;4.37;;;0.87;;
15848;SDS011;8024;48.708;9.394;2022-09-20T09:40:21;5.37;;;1.07;;
15848;SDS011;8024;48.708;9.394;2022-09-20T09:42:50;3.30;;;1.10;;
15848;SDS011;8024;48.708;9.394;2022-09-20T09:45:31;4.17;;;1.30;;
15848;SDS011;8024;48.708;9.394;2022-09-20T09:48:16;4.60;;;1.10;;
15848;SDS011;8024;48.708;9.394;2022-09-20T09:50:45;2.87;;;0.83;;
15848;SDS011;8024;48.708;9.394;2022-09-20T09:53:14;4.67;;;1.30;;
15848;SDS011;8024;48.708;9.394;2022-09-20T09:55:48;1.30;;;1.20;;
15848;SDS011;8024;48.708;9.394;2022-09-20T09:58:28;5.33;;;1.13;;
15848;SDS011;8024;48.708;9.394;2022-09-20T10:01:03;3.80;;;1.20;;
15848;SDS011;8024;48.708;9.394;2022-09-20T10:03:41;3.57;;;0.70;;
15848;SDS011;8024;48.708;9.394;2022-09-20T10:06:20;3.57;;;1.00;;
15848;SDS011;8024;48.708;9.394;2022-09-20T10:11:55;5.73;;;1.00;;
15848;SDS011;8024;48.708;9.394;2022-09-20T10:14:33;5.03;;;0.93;;
15848;SDS011;8024;48.708;9.394;2022-09-20T10:17:18;5.13;;;1.00;;
15848;SDS011;8024;48.708;9.394;2022-09-20T10:19:59;3.93;;;1.07;;
15848;SDS011;8024;48.708;9.394;2022-09-20T10:22:37;4.23;;;0.90;;
15848;SDS011;8024;48.708;9.394;2022-09-20T10:25:14;5.87;;;0.80;;
15848;SDS011;8024;48.708;9.394;2022-09-20T10:27:51;4.73;;;1.20;;
15848;SDS011;8024;48.708;9.394;2022-09-20T10:30:28;4.03;;;1.13;;
15848;SDS011;8024;48.708;9.394;2022-09-20T10:33:03;4.37;;;1.27;;
15848;SDS011;8024;48.708;9.394;2022-09-20T10:35:47;4.40;;;0.83;;
15848;SDS011;8024;48.708;9.394;2022-09-20T10:38:26;4.10;;;0.70;;
15848;SDS011;8024;48.708;9.394;2022-09-20T10:41:02;4.03;;;0.87;;
15848;SDS011;8024;48.708;9.394;2022-09-20T10:43:56;2.87;;;0.60;;
15848;SDS011;8024;48.708;9.394;2022-09-20T10:46:30;2.67;;;0.50;;
15848;SDS011;8024;48.708;9.394;2022-09-20T10:49:09;4.33;;;0.60;;
15848;SDS011;8024;48.708;9.394;2022-09-20T10:51:49;3.40;;;0.73;;
15848;SDS011;8024;48.708;9.394;2022-09-20T10:54:38;3.73;;;0.80;;
15848;SDS011;8024;48.708;9.394;2022-09-20T10:57:22;4.33;;;0.53;;
15848;SDS011;8024;48.708;9.394;2022-09-20T11:00:07;3.00;;;0.60;;
15848;SDS011;8024;48.708;9.394;2022-09-20T11:02:48;2.90;;;0.63;;
15848;SDS011;8024;48.708;9.394;2022-09-20T11:05:27;3.17;;;0.70;;
15848;SDS011;8024;48.708;9.394;2022-09-20T11:08:01;4.43;;;0.70;;
15848;SDS011;8024;48.708;9.394;2022-09-20T11:10:35;4.20;;;0.70;;
15848;SDS011;8024;48.708;9.394;2022-09-20T11:13:09;2.53;;;0.67;;
15848;SDS011;8024;48.708;9.394;2022-09-20T11:15:44;4.13;;;1.37;;
15848;SDS011;8024;48.708;9.394;2022-09-20T11:18:19;6.53;;;0.50;;
15848;SDS011;8024;48.708;9.394;2022-09-20T11:20:51;3.27;;;0.70;;
15848;SDS011;8024;48.708;9.394;2022-09-20T11:23:26;2.60;;;0.77;;
15848;SDS011;8024;48.708;9.394;2022-09-20T11:26:03;1.47;;;0.50;;
15848;SDS011;8024;48.708;9.394;2022-09-20T11:28:36;6.43;;;0.60;;
15848;SDS011;8024;48.708;9.394;2022-09-20T11:31:08;2.87;;;0.70;;
15848;SDS011;8024;48.708;9.394;2022-09-20T11:33:43;4.60;;;1.20;;
15848;SDS011;8024;48.708;9.394;2022-09-20T11:36:14;3.70;;;0.87;;
15848;SDS011;8024;48.708;9.394;2022-09-20T11:38:47;3.90;;;0.60;;
15848;SDS011;8024;48.708;9.394;2022-09-20T11:41:19;2.10;;;0.87;;
15848;SDS011;8024;48.708;9.394;2022-09-20T11:43:51;2.63;;;0.50;;
15848;SDS011;8024;48.708;9.394;2022-09-20T11:46:23;5.50;;;0.60;;
15848;SDS011;8024;48.708;9.394;2022-09-20T11:48:53;3.43;;;1.00;;
15848;SDS011;8024;48.708;9.394;2022-09-20T11:51:44;2.60;;;0.50;;
15848;SDS011;8024;48.708;9.394;2022-09-20T11:57:36;3.70;;;0.80;;
15848;SDS011;8024;48.708;9.394;2022-09-20T12:00:04;1.90;;;0.67;;
15848;SDS011;8024;48.708;9.394;2022-09-20T12:02:34;4.23;;;0.90;;
15848;SDS011;8024;48.708;9.394;2022-09-20T12:05:19;2.13;;;0.80;;
15848;SDS011;8024;48.708;9.394;2022-09-20T12:07:51;5.27;;;0.80;;
15848;SDS011;8024;48.708;9.394;2022-09-20T12:10:21;2.97;;;0.50;;
15848;SDS011;8024;48.708;9.394;2022-09-20T12:12:55;2.37;;;0.80;;
15848;SDS011;8024;48.708;9.394;2022-09-20T12:15:25;2.43;;;0.77;;
15848;SDS011;8024;48.708;9.394;2022-09-20T12:18:06;2.13;;;0.53;;
15848;SDS011;8024;48.708;9.394;2022-09-20T12:21:02;3.60;;;0.60;;
15848;SDS011;8024;48.708;9.394;2022-09-20T12:23:43;1.80;;;0.60;;
15848;SDS011;8024;48.708;9.394;2022-09-20T12:29:49;2.43;;;0.60;;
15848;SDS011;8024;48.708;9.394;2022-09-20T12:32:30;3.83;;;0.80;;
15848;SDS011;8024;48.708;9.394;2022-09-20T12:38:31;3.77;;;1.10;;
15848;SDS011;8024;48.708;9.394;2022-09-20T12:41:11;3.97;;;0.80;;
15848;SDS011;8024;48.708;9.394;2022-09-20T12:43:47;2.20;;;0.83;;
15848;SDS011;8024;48.708;9.394;2022-09-20T12:46:25;2.80;;;0.53;;
15848;SDS011;8024;48.708;9.394;2022-09-20T12:49:11;2.10;;;0.50;;
15848;SDS011;8024;48.708;9.394;2022-09-20T12:58:27;2.53;;;0.63;;
15848;SDS011;8024;48.708;9.394;2022-09-20T13:10:04;2.93;;;0.87;;
15848;SDS011;8024;48.708;9.394;2022-09-20T13:12:41;4.53;;;0.77;;
15848;SDS011;8024;48.708;9.394;2022-09-20T13:15:10;3.70;;;0.97;;
15848;SDS011;8024;48.708;9.394;2022-09-20T13:17:44;3.00;;;1.00;;
15848;SDS011;8024;48.708;9.394;2022-09-20T13:20:16;3.77;;;0.90;;
15848;SDS011;8024;48.708;9.394;2022-09-20T13:22:47;5.07;;;1.07;;
15848;SDS011;8024;48.708;9.394;2022-09-20T13:25:15;2.20;;;0.87;;
15848;SDS011;8024;48.708;9.394;2022-09-20T13:27:45;4.43;;;1.00;;
15848;SDS011;8024;48.708;9.394;2022-09-20T13:30:16;4.20;;;0.80;;
15848;SDS011;8024;48.708;9.394;2022-09-20T13:32:46;2.80;;;0.90;;
15848;SDS011;8024;48.708;9.394;2022-09-20T13:35:16;3.87;;;0.80;;
15848;SDS011;8024;48.708;9.394;2022-09-20T13:37:46;2.10;;;0.90;;
15848;SDS011;8024;48.708;9.394;2022-09-20T13:40:18;3.13;;;0.60;;
15848;SDS011;8024;48.708;9.394;2022-09-20T13:42:46;2.13;;;0.60;;
15848;SDS011;8024;48.708;9.394;2022-09-20T13:45:15;5.27;;;0.93;;
15848;SDS011;8024;48.708;9.394;2022-09-20T13:47:48;1.57;;;0.70;;
15848;SDS011;8024;48.708;9.394;2022-09-20T13:50:20;1.97;;;0.67;;
15848;SDS011;8024;48.708;9.394;2022-09-20T13:52:49;2.83;;;0.80;;
15848;SDS011;8024;48.708;9.394;2022-09-20T13:55:23;3.13;;;1.30;;
15848;SDS011;8024;48.708;9.394;2022-09-20T13:57:55;2.77;;;0.60;;
15848;SDS011;8024;48.708;9.394;2022-09-20T14:00:25;2.70;;;0.90;;
15848;SDS011;8024;48.708;9.394;2022-09-20T14:02:56;2.93;;;1.13;;
15848;SDS011;8024;48.708;9.394;2022-09-20T14:05:24;7.67;;;1.67;;
15848;SDS011;8024;48.708;9.394;2022-09-20T14:07:53;2.53;;;0.90;;
15848;SDS011;8024;48.708;9.394;2022-09-20T14:10:26;1.30;;;0.67;;
15848;SDS011;8024;48.708;9.394;2022-09-20T14:12:56;3.90;;;1.27;;
15848;SDS011;8024;48.708;9.394;2022-09-20T14:15:24;4.80;;;1.70;;
15848;SDS011;8024;48.708;9.394;2022-09-20T14:17:53;3.30;;;1.00;;
15848;SDS011;8024;48.708;9.394;2022-09-20T14:20:22;2.03;;;0.90;;
15848;SDS011;8024;48.708;9.394;2022-09-20T14:22:50;2.40;;;0.80;;
15848;SDS011;8024;48.708;9.394;2022-09-20T14:25:20;3.27;;;1.10;;
15848;SDS011;8024;48.708;9.394;2022-09-20T14:28:03;1.83;;;0.80;;
15848;SDS011;8024;48.708;9.394;2022-09-20T14:30:32;3.40;;;1.00;;
15848;SDS011;8024;48.708;9.394;2022-09-20T14:33:03;1.30;;;0.60;;
15848;SDS011;8024;48.708;9.394;2022-09-20T14:35:31;2.10;;;0.80;;
15848;SDS011;8024;48.708;9.394;2022-09-20T14:37:59;1.63;;;0.80;;
15848;SDS011;8024;48.708;9.394;2022-09-20T14:40:31;2.47;;;1.03;;
15848;SDS011;8024;48.708;9.394;2022-09-20T14:43:15;1.37;;;0.70;;
15848;SDS011;8024;48.708;9.394;2022-09-20T14:45:50;6.57;;;1.30;;
15848;SDS011;8024;48.708;9.394;2022-09-20T14:51:19;3.33;;;1.07;;
15848;SDS011;8024;48.708;9.394;2022-09-20T14:53:49;3.53;;;1.60;;
15848;SDS011;8024;48.708;9.394;2022-09-20T14:56:25;3.03;;;0.90;;
15848;SDS011;8024;48.708;9.394;2022-09-20T14:59:01;5.33;;;1.17;;
15848;SDS011;8024;48.708;9.394;2022-09-20T15:01:31;3.07;;;1.20;;
15848;SDS011;8024;48.708;9.394;2022-09-20T15:04:05;3.57;;;1.73;;
15848;SDS011;8024;48.708;9.394;2022-09-20T15:06:34;3.37;;;1.17;;
15848;SDS011;8024;48.708;9.394;2022-09-20T15:09:03;2.60;;;1.67;;
15848;SDS011;8024;48.708;9.394;2022-09-20T15:11:30;4.60;;;1.03;;
15848;SDS011;8024;48.708;9.394;2022-09-20T15:13:57;3.03;;;1.40;;
15848;SDS011;8024;48.708;9.394;2022-09-20T15:16:24;3.73;;;1.20;;
15848;SDS011;8024;48.708;9.394;2022-09-20T15:18:53;6.80;;;1.17;;
15848;SDS011;8024;48.708;9.394;2022-09-20T15:21:21;2.87;;;0.83;;
15848;SDS011;8024;48.708;9.394;2022-09-20T15:23:49;3.83;;;0.97;;
15848;SDS011;8024;48.708;9.394;2022-09-20T15:26:16;1.97;;;1.57;;
15848;SDS011;8024;48.708;9.394;2022-09-20T15:28:45;2.37;;;0.90;;
15848;SDS011;8024;48.708;9.394;2022-09-20T15:31:12;3.80;;;1.17;;
15848;SDS011;8024;48.708;9.394;2022-09-20T15:33:41;4.20;;;1.00;;
15848;SDS011;8024;48.708;9.394;2022-09-20T15:36:08;5.00;;;1.50;;
15848;SDS011;8024;48.708;9.394;2022-09-20T15:38:37;3.83;;;1.27;;
15848;SDS011;8024;48.708;9.394;2022-09-20T15:41:05;2.20;;;1.10;;
15848;SDS011;8024;48.708;9.394;2022-09-20T15:43:32;4.60;;;1.17;;
15848;SDS011;8024;48.708;9.394;2022-09-20T15:46:00;3.00;;;1.33;;
15848;SDS011;8024;48.708;9.394;2022-09-20T15:48:41;3.47;;;1.50;;
15848;SDS011;8024;48.708;9.394;2022-09-20T15:51:09;6.13;;;1.97;;
15848;SDS011;8024;48.708;9.394;2022-09-20T15:53:39;1.43;;;1.10;;
15848;SDS011;8024;48.708;9.394;2022-09-20T15:56:13;1.23;;;0.80;;
15848;SDS011;8024;48.708;9.394;2022-09-20T15:58:42;1.97;;;1.07;;
15848;SDS011;8024;48.708;9.394;2022-09-20T16:01:11;3.83;;;1.37;;
15848;SDS011;8024;48.708;9.394;2022-09-20T16:03:40;1.63;;;1.17;;
15848;SDS011;8024;48.708;9.394;2022-09-20T16:06:09;1.93;;;1.03;;
15848;SDS011;8024;48.708;9.394;2022-09-20T16:08:39;3.43;;;1.83;;
15848;SDS011;8024;48.708;9.394;2022-09-20T16:11:08;7.70;;;1.57;;
15848;SDS011;8024;48.708;9.394;2022-09-20T16:13:37;3.87;;;1.50;;
15848;SDS011;8024;48.708;9.394;2022-09-20T16:16:06;3.37;;;1.20;;
15848;SDS011;8024;48.708;9.394;2022-09-20T16:18:37;1.63;;;1.20;;
15848;SDS011;8024;48.708;9.394;2022-09-20T16:21:22;1.37;;;1.00;;
15848;SDS011;8024;48.708;9.394;2022-09-20T16:23:51;4.40;;;1.73;;
15848;SDS011;8024;48.708;9.394;2022-09-20T16:26:20;2.70;;;1.70;;
15848;SDS011;8024;48.708;9.394;2022-09-20T16:28:48;3.80;;;1.20;;
15848;SDS011;8024;48.708;9.394;2022-09-20T16:31:28;1.57;;;0.70;;
15848;SDS011;8024;48.708;9.394;2022-09-20T16:33:58;2.07;;;0.90;;
15848;SDS011;8024;48.708;9.394;2022-09-20T16:36:26;2.93;;;0.90;;
15848;SDS011;8024;48.708;9.394;2022-09-20T16:38:55;2.63;;;0.80;;
15848;SDS011;8024;48.708;9.394;2022-09-20T16:41:23;1.33;;;1.00;;
15848;SDS011;8024;48.708;9.394;2022-09-20T16:43:52;2.43;;;1.30;;